KGKJ

Port Meadville Airport

Meadville, Pennsylvania, USA
METAR KGKJ 210653Z AUTO 04003KT 9SM CLR 10/10 A3018 RMK AO2 SLP220 T01000100
Observed Flight Rules
May-21 @ 06:53 UTC (27 minutes ago) Visual Flight Rules
Wind Visibility Clouds
40° at 3 knots 9 miles
  • Clear skies
Temperatures Readings
Current 10°C / 50°F
Dewpoint 10°C / 50°F
Humidity 100%
Altimeter 30.18" Hg
Pressure 1022 hPa
Elevation 428
METAR KGKJ 210653Z AUTO 04003KT 9SM CLR 10/10 A3018 RMK AO2 SLP220 T01000100
Observed Flight Rules
May-21 @ 06:53 UTC
(27 minutes ago)
VFR
Wind Visibility
40° at 3 knots 9 miles
Clouds
  • Clear skies
Temperature Dewpoint
10°C / 50°F 10°C / 50°F
Humidity Altimeter Pressure
100% 30.18" Hg 1022 hPa